Aviation Digital Data Service (ADDS)

Output produced by METARs form (1200 UTC 18 June 2019)
found at http://www.aviationweather.gov/metar/data/
 
Forecast for: RJGG (NAGOYA/CHUBU , JP)
Text: TAF RJGG 181106Z 1812/1918 14006KT 9999 FEW030
Forecast period: 1200 to 1500 UTC 18 June 2019
Forecast type: FROM: standard forecast or significant change
Winds: from the SE (140 degrees) at 7 MPH (6 knots; 3.1 m/s)
Visibility: 6 or more miles 10+ km)
Ceiling: at least 12,000 feet AGL
Clouds: few clouds at 3000 feet AGL
Weather: no significant weather forecast for this period
Text: BECMG 1815/1817 36004KT
Forecast period: 1500 UTC 18 June 2019 to 0000 UTC 19 June 2019
Forecast type: BECOMING: Conditions expected to become as follows by 1700 UTC 18 June 2019
Winds: from the N (360 degrees) at 5 MPH (4 knots; 2.1 m/s)
Visibility: 6 or more miles 10+ km)
Ceiling: at least 12,000 feet AGL
Clouds: few clouds at 3000 feet AGL
Weather: no significant weather forecast for this period
Text: BECMG 1900/1903 14008KT
Forecast period: 0000 to 1800 UTC 19 June 2019
Forecast type: BECOMING: Conditions expected to become as follows by 0300 UTC 19 June 2019
Winds: from the SE (140 degrees) at 9 MPH (8 knots; 4.1 m/s)
Visibility: 6 or more miles 10+ km)
Ceiling: at least 12,000 feet AGL
Clouds: few clouds at 3000 feet AGL
Weather: no significant weather forecast for this period